Time;durP1;ratioP1;P1;durP2;ratioP2;P2;SDS_P1;SDS_P2;PMS_P1;PMS_P2;Temp;Humidity;BMP_temperature;BMP_pressure;BME280_temperature;BME280_humidity;BME280_pressure;Samples;Min_cycle;Max_cycle;Signal;HPM_P1;HPM_P2
2024/02/22 00:02:09;;;;;;;;;;;;;;;6.04;100.00;98572.56;4955141;28;19925;-91
2024/02/22 00:04:34;;;;;;;;;;;;;;;5.99;100.00;98573.63;4956108;28;19924;-90
2024/02/22 00:07:02;;;;;;;;;;;;;;;5.85;100.00;98569.84;4973343;28;19922;-88
2024/02/22 00:09:29;;;;;;;;;;;;;;;5.84;100.00;98555.88;4963985;28;20406;-91
2024/02/22 00:12:13;;;;;;;;;;;;;;;5.95;100.00;98555.38;4956165;28;19914;-92
2024/02/22 00:14:41;;;;;;;;;;;;;;;5.97;100.00;98545.72;4955228;28;20396;-90
2024/02/22 00:17:23;;;;;;;;;;;;;;;5.93;100.00;98550.19;4955171;28;19914;-92
2024/02/22 00:19:54;;;;;;;;;;;;;;;5.89;100.00;98538.13;4956236;28;20043;-91
2024/02/22 00:22:20;;;;;;;;;;;;;;;5.97;100.00;98543.91;4972731;28;20009;-87
2024/02/22 00:24:48;;;;;;;;;;;;;;;5.89;100.00;98538.13;4955947;28;20012;-92
2024/02/22 00:27:18;;;;;;;;;;;;;;;5.82;100.00;98539.28;4956083;28;19922;-91
2024/02/22 00:29:43;;;;;;;;;;;;;;;5.87;100.00;98532.06;4973226;28;19973;-91
2024/02/22 09:01:35;;;;;;;;;;;;;;;6.36;100.00;97742.44;4980400;28;19937;-82
2024/02/22 09:04:01;;;;;;;;;;;;;;;6.32;100.00;97736.53;4982064;28;19922;-92
2024/02/22 09:06:26;;;;;;;;;;;;;;;6.27;100.00;97717.53;4982663;28;19921;-87
2024/02/22 09:08:53;;;;;;;;;;;;;;;6.31;100.00;97715.56;4982942;28;19918;-90
2024/02/22 09:11:18;;;;;;;;;;;;;;;6.40;100.00;97722.94;4965520;28;19921;-88
2024/02/22 09:13:44;;;;;;;;;;;;;;;6.40;100.00;97711.53;4987127;28;19918;-83
2024/02/22 09:16:14;;;;;;;;;;;;;;;6.47;100.00;97695.31;4967329;28;19921;-86
2024/02/22 09:18:39;;;;;;;;;;;;;;;6.40;100.00;97698.38;4985371;28;20358;-83
2024/02/22 09:21:05;;;;;;;;;;;;;;;6.46;100.00;97687.50;4987399;28;19918;-86
2024/02/22 09:23:30;;;;;;;;;;;;;;;6.45;100.00;97688.47;4982362;28;20006;-88
2024/02/22 09:25:58;;;;;;;;;;;;;;;6.45;100.00;97688.47;4967434;28;19921;-86
2024/02/22 09:28:24;;;;;;;;;;;;;;;6.58;100.00;97684.16;4968261;28;19918;-85
2024/02/22 09:30:51;;;;;;;;;;;;;;;6.49;100.00;97684.69;4968034;28;19926;-90
2024/02/22 09:33:16;;;;;;;;;;;;;;;6.56;100.00;97680.78;4983521;28;19918;-93
2024/02/22 09:35:42;;;;;;;;;;;;;;;6.50;100.00;97663.56;4967647;28;19922;-85
2024/02/22 09:38:07;;;;;;;;;;;;;;;6.50;100.00;97663.56;4967888;28;19921;-87
2024/02/22 09:40:33;;;;;;;;;;;;;;;6.47;100.00;97660.25;4985716;28;19922;-88
2024/02/22 09:42:59;;;;;;;;;;;;;;;6.47;100.00;97652.38;4985858;28;20358;-88
2024/02/22 09:45:24;;;;;;;;;;;;;;;6.49;100.00;97653.13;4983851;28;19930;-88
2024/02/22 09:47:53;;;;;;;;;;;;;;;6.47;100.00;97650.56;4985715;28;20420;-88
2024/02/22 09:50:20;;;;;;;;;;;;;;;6.47;100.00;97649.75;4967703;28;20353;-87
2024/02/22 09:52:46;;;;;;;;;;;;;;;6.54;100.00;97641.41;4968469;28;19969;-88
2024/02/22 09:55:12;;;;;;;;;;;;;;;6.59;100.00;97637.63;4983890;28;19918;-87
2024/02/22 09:57:37;;;;;;;;;;;;;;;6.40;100.00;97632.63;4983660;28;20016;-88
2024/02/22 10:00:06;;;;;;;;;;;;;;;6.46;100.00;97632.25;4983473;28;20044;-88
2024/02/22 10:02:32;;;;;;;;;;;;;;;6.43;100.00;97628.03;4983698;28;20020;-89
2024/02/22 10:04:59;;;;;;;;;;;;;;;6.35;100.00;97620.59;4968080;28;20020;-88
2024/02/22 10:07:25;;;;;;;;;;;;;;;6.52;100.00;97616.94;4967161;28;19933;-87
2024/02/22 10:09:51;;;;;;;;;;;;;;;6.40;100.00;97625.59;4985525;28;19941;-90
2024/02/22 10:12:30;;;;;;;;;;;;;;;6.44;100.00;97627.09;4984988;28;20350;-89
2024/02/22 10:14:55;;;;;;;;;;;;;;;6.42;100.00;97614.97;4966237;28;20373;-83
2024/02/22 10:17:21;;;;;;;;;;;;;;;6.33;100.00;97619.88;4985076;28;19948;-87
2024/02/22 10:20:00;;;;;;;;;;;;;;;6.45;100.00;97602.47;4968130;28;20023;-89
2024/02/22 10:22:42;;;;;;;;;;;;;;;6.53;100.00;97591.50;4967884;28;20308;-87
2024/02/22 10:25:14;;;;;;;;;;;;;;;6.53;100.00;97591.50;4983485;28;19918;-88
2024/02/22 10:27:45;;;;;;;;;;;;;;;6.43;100.00;97598.25;4967412;28;19918;-87
2024/02/22 10:30:11;;;;;;;;;;;;;;;6.50;100.00;97596.94;4966242;28;19922;-87
2024/02/22 10:32:44;;;;;;;;;;;;;;;6.40;100.00;97580.88;4984712;28;20364;-88
2024/02/22 10:35:11;;;;;;;;;;;;;;;6.50;100.00;97565.38;4985085;28;20017;-86
2024/02/22 10:37:39;;;;;;;;;;;;;;;6.57;100.00;97569.28;4984697;28;19953;-87
2024/02/22 10:40:05;;;;;;;;;;;;;;;6.59;100.00;97554.28;4967839;28;19917;-86
2024/02/22 10:42:30;;;;;;;;;;;;;;;6.66;100.00;97552.09;4984689;28;19933;-89
2024/02/22 10:44:56;;;;;;;;;;;;;;;6.53;100.00;97552.03;4965978;28;19918;-91
2024/02/22 10:47:22;;;;;;;;;;;;;;;6.46;100.00;97537.53;4967133;28;20128;-86
2024/02/22 10:49:50;;;;;;;;;;;;;;;6.49;100.00;97542.63;4984943;28;19922;-89
2024/02/22 10:52:15;;;;;;;;;;;;;;;6.45;100.00;97535.88;4985608;28;19914;-86
2024/02/22 10:55:17;;;;;;;;;;;;;;;6.55;100.00;97532.56;4984785;28;20395;-90
2024/02/22 10:57:48;;;;;;;;;;;;;;;6.45;100.00;97527.97;4948407;28;19914;-89
2024/02/22 11:00:14;;;;;;;;;;;;;;;6.60;100.00;97521.75;4983089;28;19920;-87
2024/02/22 11:02:40;;;;;;;;;;;;;;;6.47;100.00;97511.16;4984873;28;19922;-83
2024/02/22 11:05:10;;;;;;;;;;;;;;;6.50;100.00;97507.50;4984706;28;19925;-82
2024/02/22 11:07:52;;;;;;;;;;;;;;;6.49;100.00;97495.25;4983733;28;20428;-90
2024/02/22 11:10:49;;;;;;;;;;;;;;;;;;;;;
2024/02/22 11:13:21;;;;;;;;;;;;;;;6.58;100.00;97496.50;4984210;28;19918;-91
2024/02/22 11:18:23;;;;;;;;;;;;;;;6.65;100.00;97482.84;4972689;28;20428;-85
2024/02/22 11:20:55;;;;;;;;;;;;;;;6.57;100.00;97465.84;4956862;28;19922;-89
2024/02/22 11:23:22;;;;;;;;;;;;;;;6.47;100.00;97466.41;4974453;28;20421;-88
2024/02/22 11:25:48;;;;;;;;;;;;;;;6.50;100.00;97465.41;4974312;28;19918;-92
2024/02/22 11:28:13;;;;;;;;;;;;;;;6.54;100.00;97464.25;4957102;28;19929;-89
2024/02/22 11:30:40;;;;;;;;;;;;;;;6.51;100.00;97448.66;4954731;28;19919;-86
2024/02/22 11:33:07;;;;;;;;;;;;;;;6.51;100.00;97443.38;4956337;28;19957;-85
2024/02/22 11:35:32;;;;;;;;;;;;;;;6.59;100.00;97446.41;4972993;28;19977;-89
2024/02/22 11:37:58;;;;;;;;;;;;;;;6.50;100.00;97447.81;4987219;23;20286;-87
2024/02/22 11:40:26;;;;;;;;;;;;;;;6.54;100.00;97444.06;5003386;28;19925;-89
2024/02/22 11:42:58;;;;;;;;;;;;;;;6.60;100.00;97434.91;5002826;28;19929;-88
2024/02/22 11:45:23;;;;;;;;;;;;;;;6.69;100.00;97430.84;5011801;28;19975;-87
2024/02/22 11:47:57;;;;;;;;;;;;;;;6.56;100.00;97430.81;5002796;28;19921;-91
2024/02/22 11:50:22;;;;;;;;;;;;;;;6.52;100.00;97426.66;5003026;28;20376;-85
2024/02/22 11:52:48;;;;;;;;;;;;;;;6.58;100.00;97430.72;5012646;28;19929;-89
2024/02/22 11:55:14;;;;;;;;;;;;;;;6.53;100.00;97409.94;5012528;28;19931;-90
2024/02/22 11:57:42;;;;;;;;;;;;;;;6.53;100.00;97417.84;5003561;28;20012;-87
2024/02/22 12:00:08;;;;;;;;;;;;;;;6.67;100.00;97399.38;5001394;28;19957;-86
2024/02/22 12:02:41;;;;;;;;;;;;;;;6.77;100.00;97409.31;5012716;28;20525;-88
2024/02/22 12:05:09;;;;;;;;;;;;;;;6.67;100.00;97399.38;5002888;28;19921;-87
2024/02/22 12:07:35;;;;;;;;;;;;;;;6.66;100.00;97389.78;5012462;28;19922;-89
2024/02/22 12:10:01;;;;;;;;;;;;;;;6.57;100.00;97381.66;5012377;28;20000;-91
2024/02/22 12:12:26;;;;;;;;;;;;;;;6.58;100.00;97380.72;5002699;28;20019;-90
2024/02/22 12:15:02;;;;;;;;;;;;;;;6.62;100.00;97369.88;5002166;28;19918;-89
2024/02/22 12:17:34;;;;;;;;;;;;;;;6.56;100.00;97359.75;5012141;28;19973;-89
2024/02/22 12:20:00;;;;;;;;;;;;;;;6.60;100.00;97352.50;5002573;28;19922;-86
2024/02/22 12:22:33;;;;;;;;;;;;;;;6.69;100.00;97339.59;5002328;28;19921;-90
2024/02/22 12:24:58;;;;;;;;;;;;;;;6.60;100.00;97320.94;5012063;28;20008;-88
2024/02/22 12:27:24;;;;;;;;;;;;;;;6.62;100.00;97319.03;5002734;28;20017;-87
2024/02/22 12:29:50;;;;;;;;;;;;;;;6.58;100.00;97315.75;5010979;28;20373;-89
2024/02/22 12:32:15;;;;;;;;;;;;;;;6.59;100.00;97306.06;5002521;28;19921;-87
2024/02/22 12:34:40;;;;;;;;;;;;;;;6.58;100.00;97299.97;5012225;28;19988;-89
2024/02/22 12:37:05;;;;;;;;;;;;;;;6.62;100.00;97290.94;5012393;28;19957;-84
2024/02/22 12:39:31;;;;;;;;;;;;;;;6.60;100.00;97277.03;5011527;28;20328;-87
2024/02/22 12:41:57;;;;;;;;;;;;;;;6.58;100.00;97276.31;5011313;28;20396;-84
2024/02/22 12:44:22;;;;;;;;;;;;;;;6.67;100.00;97275.69;5016453;28;20558;-84
2024/02/22 12:46:48;;;;;;;;;;;;;;;6.57;100.00;97253.56;5012289;28;19972;-87
2024/02/22 12:49:13;;;;;;;;;;;;;;;6.67;100.00;97246.75;5015339;28;19922;-88
2024/02/22 12:52:04;;;;;;;;;;;;;;;;;;;;;
2024/02/22 12:54:30;;;;;;;;;;;;;;;6.55;100.00;97237.03;5014672;28;19921;-89
2024/02/22 12:56:58;;;;;;;;;;;;;;;6.61;100.00;97215.59;5014759;28;20008;-91
2024/02/22 12:59:23;;;;;;;;;;;;;;;6.51;100.00;97210.09;5003811;28;20350;-89
2024/02/22 13:01:51;;;;;;;;;;;;;;;6.64;100.00;97207.47;5014739;28;19961;-88
2024/02/22 13:04:40;;;;;;;;;;;;;;;6.61;100.00;97186.63;4973165;28;19957;-91
2024/02/22 13:07:05;;;;;;;;;;;;;;;6.61;100.00;97193.69;4973111;28;19922;-85
2024/02/22 13:09:33;;;;;;;;;;;;;;;6.46;100.00;97190.28;4973142;28;19922;-85
2024/02/22 13:12:10;;;;;;;;;;;;;;;6.64;100.00;97173.28;4956874;28;20385;-91
2024/02/22 13:14:35;;;;;;;;;;;;;;;6.53;100.00;97165.28;4971738;28;19924;-86
2024/02/22 13:17:01;;;;;;;;;;;;;;;6.63;100.00;97171.56;4973052;28;20397;-85
2024/02/22 13:19:26;;;;;;;;;;;;;;;6.58;100.00;97164.97;4973098;28;20415;-83
2024/02/22 13:21:52;;;;;;;;;;;;;;;6.59;100.00;97145.56;4973039;28;19922;-85
2024/02/22 13:24:18;;;;;;;;;;;;;;;6.59;100.00;97146.44;4972039;28;19922;-86
2024/02/22 13:26:43;;;;;;;;;;;;;;;6.59;100.00;97149.06;4956547;28;19992;-83
2024/02/22 13:29:09;;;;;;;;;;;;;;;6.49;100.00;97146.22;4955454;28;20358;-84
2024/02/22 13:31:35;;;;;;;;;;;;;;;6.51;100.00;97132.94;4972763;28;19914;-82
2024/02/22 13:34:00;;;;;;;;;;;;;;;6.53;100.00;97133.69;4972791;28;19941;-85
2024/02/22 13:36:28;;;;;;;;;;;;;;;6.58;100.00;97115.81;5003894;28;19917;-83
2024/02/22 13:40:18;;;;;;;;;;;;;;;6.60;100.00;97110.44;5095278;27;19921;-85
2024/02/22 13:42:44;;;;;;;;;;;;;;;6.67;100.00;97109.91;5079464;28;20376;-90
2024/02/22 13:45:09;;;;;;;;;;;;;;;6.70;100.00;97096.53;5059839;28;19970;-88
2024/02/22 13:47:34;;;;;;;;;;;;;;;6.69;100.00;97092.22;5079342;28;19916;-85
2024/02/22 13:50:00;;;;;;;;;;;;;;;6.67;100.00;97088.84;5061451;28;19921;-90
2024/02/22 13:52:25;;;;;;;;;;;;;;;6.67;100.00;97080.97;5079286;28;19916;-88
2024/02/22 13:54:51;;;;;;;;;;;;;;;6.67;100.00;97075.69;5060896;28;20275;-85
2024/02/22 13:57:17;;;;;;;;;;;;;;;6.67;100.00;97078.34;5079049;28;19920;-84
2024/02/22 13:59:42;;;;;;;;;;;;;;;6.62;100.00;97069.94;5078042;28;20015;-87
2024/02/22 14:02:07;;;;;;;;;;;;;;;6.60;100.00;97060.44;5094825;28;19920;-85
2024/02/22 14:04:33;;;;;;;;;;;;;;;6.71;100.00;97058.72;5078516;28;19917;-82
2024/02/22 14:06:59;;;;;;;;;;;;;;;6.75;100.00;97048.00;5079112;28;19921;-85
2024/02/22 14:09:24;;;;;;;;;;;;;;;6.65;100.00;97043.41;5079010;28;19919;-81
2024/02/22 14:11:49;;;;;;;;;;;;;;;6.80;100.00;97041.47;5079541;28;20386;-87
2024/02/22 14:14:15;;;;;;;;;;;;;;;6.63;100.00;97040.00;5078252;28;20284;-87
2024/02/22 14:16:46;;;;;;;;;;;;;;;6.60;100.00;97024.44;5078641;28;20000;-88
2024/02/22 14:19:14;;;;;;;;;;;;;;;6.67;100.00;97017.81;5075413;28;20395;-86
2024/02/22 14:21:39;;;;;;;;;;;;;;;6.60;100.00;97018.34;5078574;28;19999;-92
2024/02/22 14:24:48;;;;;;;;;;;;;;;6.58;100.00;97001.84;5093831;28;20015;-91
2024/02/22 14:27:10;;;;;;;;;;;;;;;6.67;100.00;97009.91;5074511;28;19927;-88
2024/02/22 14:29:36;;;;;;;;;;;;;;;6.76;100.00;96997.88;5077075;28;19917;-88
2024/02/22 14:32:05;;;;;;;;;;;;;;;6.71;100.00;97003.47;5059273;28;19924;-91
2024/02/22 14:34:30;;;;;;;;;;;;;;;6.63;100.00;96991.81;5078808;28;20275;-89
2024/02/22 14:36:55;;;;;;;;;;;;;;;6.64;100.00;96983.00;5078541;28;19916;-85
2024/02/22 14:39:21;;;;;;;;;;;;;;;6.72;100.00;96991.16;5078401;28;19925;-88
2024/02/22 14:41:46;;;;;;;;;;;;;;;6.62;100.00;96985.72;5060174;28;19916;-86
2024/02/22 14:44:11;;;;;;;;;;;;;;;6.65;100.00;96977.63;5077554;28;20435;-90
2024/02/22 14:46:37;;;;;;;;;;;;;;;6.54;100.00;96974.88;5078066;28;19921;-88
2024/02/22 14:49:03;;;;;;;;;;;;;;;6.66;100.00;96975.81;5060256;28;19921;-84
2024/02/22 14:51:28;;;;;;;;;;;;;;;6.69;100.00;96959.81;5065638;28;20468;-84
2024/02/22 14:53:54;;;;;;;;;;;;;;;6.71;100.00;96964.00;5064458;28;19916;-87
2024/02/22 14:56:19;;;;;;;;;;;;;;;6.75;100.00;96969.03;5080243;28;20003;-84
2024/02/22 14:58:44;;;;;;;;;;;;;;;6.58;100.00;96967.63;5064943;28;19921;-85
2024/02/22 15:01:18;;;;;;;;;;;;;;;6.69;100.00;96965.91;5062608;28;19920;-87
2024/02/22 15:03:44;;;;;;;;;;;;;;;6.63;100.00;96961.06;5064803;28;19924;-92
2024/02/22 15:06:11;;;;;;;;;;;;;;;6.70;100.00;96961.47;5064585;28;20355;-85
2024/02/22 15:08:37;;;;;;;;;;;;;;;6.62;100.00;96948.03;5047062;28;19956;-87
2024/02/22 15:11:02;;;;;;;;;;;;;;;6.58;100.00;96943.97;5064299;28;19994;-90
2024/02/22 15:13:28;;;;;;;;;;;;;;;6.72;100.00;96936.75;5046369;28;19982;-87
2024/02/22 15:15:53;;;;;;;;;;;;;;;6.67;100.00;96938.00;5062703;28;19923;-85
2024/02/22 15:18:18;;;;;;;;;;;;;;;6.77;100.00;96922.41;5064447;28;19917;-87
2024/02/22 15:20:43;;;;;;;;;;;;;;;6.66;100.00;96916.13;5064190;28;19961;-86
2024/02/22 15:23:09;;;;;;;;;;;;;;;6.64;100.00;96909.31;5064275;28;20356;-85
2024/02/22 15:25:34;;;;;;;;;;;;;;;6.66;100.00;96910.88;5064192;28;19917;-87
2024/02/22 15:27:59;;;;;;;;;;;;;;;6.78;100.00;96908.28;5046736;28;19917;-88
2024/02/22 15:30:25;;;;;;;;;;;;;;;6.76;100.00;96910.19;5077749;28;19923;-86
2024/02/22 15:32:55;;;;;;;;;;;;;;;6.82;100.00;96902.69;5079464;28;20339;-90
2024/02/22 15:35:21;;;;;;;;;;;;;;;6.83;100.00;96899.13;5064353;28;19952;-85
2024/02/22 15:37:47;;;;;;;;;;;;;;;6.69;100.00;96902.75;5063619;28;20007;-91
2024/02/22 15:40:16;;;;;;;;;;;;;;;6.64;100.00;96898.78;5045225;28;20291;-89
2024/02/22 15:42:44;;;;;;;;;;;;;;;6.70;100.00;96903.59;5064150;28;20737;-86
2024/02/22 15:45:10;;;;;;;;;;;;;;;6.71;100.00;96898.22;5061465;28;20434;-87
2024/02/22 15:47:37;;;;;;;;;;;;;;;6.70;100.00;96888.66;5063721;28;19916;-93
2024/02/22 15:50:14;;;;;;;;;;;;;;;6.76;100.00;96900.50;5064526;28;19932;-87
2024/02/22 15:52:40;;;;;;;;;;;;;;;6.73;100.00;96885.81;5046481;28;19924;-86
2024/02/22 15:55:05;;;;;;;;;;;;;;;6.71;100.00;96881.59;5063496;28;19924;-87
2024/02/22 15:57:30;;;;;;;;;;;;;;;6.72;100.00;96849.91;5063185;28;19927;-89
2024/02/22 15:59:56;;;;;;;;;;;;;;;6.69;100.00;96858.03;5062072;28;19923;-87
2024/02/22 16:02:21;;;;;;;;;;;;;;;6.76;100.00;96847.88;5063406;28;19924;-87
2024/02/22 16:04:47;;;;;;;;;;;;;;;6.73;100.00;96848.09;5063301;28;20318;-90
2024/02/22 16:07:15;;;;;;;;;;;;;;;6.81;100.00;96850.16;5063122;28;19925;-87
2024/02/22 16:09:40;;;;;;;;;;;;;;;6.83;100.00;96845.63;5062184;28;19924;-90
2024/02/22 16:12:06;;;;;;;;;;;;;;;6.80;100.00;96840.63;5063138;28;19917;-87
2024/02/22 16:14:31;;;;;;;;;;;;;;;6.82;100.00;96838.69;5061756;28;19932;-92
2024/02/22 16:16:58;;;;;;;;;;;;;;;6.77;100.00;96830.31;5078377;28;19916;-88
2024/02/22 16:19:24;;;;;;;;;;;;;;;6.72;100.00;96846.44;5048002;22;19929;-86
2024/02/22 16:21:49;;;;;;;;;;;;;;;6.87;100.00;96812.88;5045034;28;19941;-85
2024/02/22 16:24:14;;;;;;;;;;;;;;;6.69;100.00;96804.56;5012984;28;20008;-84
2024/02/22 16:26:40;;;;;;;;;;;;;;;6.68;100.00;96821.28;5012717;28;19929;-87
2024/02/22 16:29:05;;;;;;;;;;;;;;;6.65;100.00;96806.59;5012297;28;19925;-90
2024/02/22 16:31:30;;;;;;;;;;;;;;;6.71;100.00;96826.34;5009907;28;19922;-86
2024/02/22 16:33:58;;;;;;;;;;;;;;;6.77;100.00;96814.53;5012315;28;19921;-91
2024/02/22 16:36:32;;;;;;;;;;;;;;;6.88;100.00;96811.94;5013043;28;20006;-92
2024/02/22 16:38:57;;;;;;;;;;;;;;;6.87;100.00;96807.59;5027701;28;19922;-83
2024/02/22 16:41:26;;;;;;;;;;;;;;;6.85;100.00;96810.34;5012655;28;19932;-89
2024/02/22 16:43:51;;;;;;;;;;;;;;;6.83;100.00;96795.63;5028208;28;19918;-82
2024/02/22 16:46:17;;;;;;;;;;;;;;;6.80;100.00;96801.97;5011392;28;19929;-86
2024/02/22 16:48:42;;;;;;;;;;;;;;;6.66;100.00;96800.34;5012645;28;20315;-84
2024/02/22 16:51:07;;;;;;;;;;;;;;;6.72;100.00;96818.31;5010882;28;19929;-88
2024/02/22 16:53:33;;;;;;;;;;;;;;;6.78;100.00;96808.28;5011139;28;19921;-86
2024/02/22 16:56:00;;;;;;;;;;;;;;;6.87;100.00;96810.22;5012479;28;19977;-81
2024/02/22 16:58:25;;;;;;;;;;;;;;;6.84;100.00;96816.56;5012083;28;19989;-90
2024/02/22 17:00:51;;;;;;;;;;;;;;;6.82;100.00;96825.53;5010851;28;19926;-84
2024/02/22 17:03:16;;;;;;;;;;;;;;;6.81;100.00;96810.69;5011850;28;19957;-88
2024/02/22 17:05:41;;;;;;;;;;;;;;;6.84;100.00;96813.09;5012782;28;19918;-88
2024/02/22 17:08:08;;;;;;;;;;;;;;;6.86;100.00;96814.66;5010647;28;20278;-85
2024/02/22 17:10:33;;;;;;;;;;;;;;;6.95;100.00;96822.81;5012071;28;19918;-84
2024/02/22 17:12:58;;;;;;;;;;;;;;;6.87;100.00;96826.03;5011854;28;19947;-88
2024/02/22 17:15:23;;;;;;;;;;;;;;;6.90;100.00;96831.06;5010087;28;19922;-86
2024/02/22 17:17:50;;;;;;;;;;;;;;;6.86;100.00;96834.88;5012210;28;19968;-85
2024/02/22 17:20:21;;;;;;;;;;;;;;;6.86;100.00;96833.09;5026481;28;19921;-88
2024/02/22 17:22:47;;;;;;;;;;;;;;;6.77;100.00;96831.16;5010897;28;19925;-85
2024/02/22 17:25:12;;;;;;;;;;;;;;;6.73;100.00;96838.44;5012329;28;19959;-88
2024/02/22 17:27:38;;;;;;;;;;;;;;;6.79;100.00;96823.97;5012273;28;19921;-85
2024/02/22 17:30:04;;;;;;;;;;;;;;;6.94;100.00;96821.13;5042160;28;19921;-85
2024/02/22 17:32:31;;;;;;;;;;;;;;;6.90;100.00;96829.25;5044040;28;20007;-86
2024/02/22 17:34:56;;;;;;;;;;;;;;;6.84;100.00;96836.78;5011675;28;19940;-89
2024/02/22 17:37:21;;;;;;;;;;;;;;;6.77;100.00;96835.56;5012066;28;20405;-83
2024/02/22 17:39:48;;;;;;;;;;;;;;;6.84;100.00;96836.78;5011455;28;19934;-89
2024/02/22 17:42:13;;;;;;;;;;;;;;;6.71;100.00;96847.38;5010972;28;19957;-86
2024/02/22 17:44:38;;;;;;;;;;;;;;;6.80;100.00;96849.34;5010017;28;19960;-87
2024/02/22 17:47:07;;;;;;;;;;;;;;;6.84;100.00;96842.03;5012029;28;20452;-89
2024/02/22 17:49:32;;;;;;;;;;;;;;;6.80;100.00;96845.88;5041722;28;19987;-86
2024/02/22 17:52:00;;;;;;;;;;;;;;;6.85;100.00;96826.13;5010509;28;19922;-88
2024/02/22 17:54:25;;;;;;;;;;;;;;;6.91;100.00;96838.00;5011503;28;20012;-89
2024/02/22 17:56:59;;;;;;;;;;;;;;;6.93;100.00;96862.44;5011446;28;20020;-91
2024/02/22 17:59:24;;;;;;;;;;;;;;;6.81;100.00;96872.09;5024758;28;20112;-86
2024/02/22 18:01:49;;;;;;;;;;;;;;;6.83;100.00;96835.09;5011921;28;20410;-89
2024/02/22 18:04:20;;;;;;;;;;;;;;;6.86;100.00;96792.75;5009944;28;20404;-91
2024/02/22 18:06:45;;;;;;;;;;;;;;;6.85;100.00;96762.16;5009834;28;19921;-90
2024/02/22 18:09:11;;;;;;;;;;;;;;;6.76;100.00;96774.19;5011047;28;20343;-89
2024/02/22 18:11:36;;;;;;;;;;;;;;;6.93;100.00;96720.28;5026708;28;19968;-89
2024/02/22 18:14:01;;;;;;;;;;;;;;;6.97;100.00;96715.63;5026704;28;20331;-90
2024/02/22 18:16:27;;;;;;;;;;;;;;;7.04;100.00;96748.41;5010083;28;19921;-89
2024/02/22 18:18:52;;;;;;;;;;;;;;;7.10;100.00;96776.91;5010230;28;19964;-89
2024/02/22 18:21:17;;;;;;;;;;;;;;;6.90;100.00;96792.41;5010293;28;20291;-89
2024/02/22 18:23:44;;;;;;;;;;;;;;;7.03;100.00;96813.38;5011905;28;19918;-90
2024/02/22 18:26:10;;;;;;;;;;;;;;;7.00;100.00;96812.78;5012836;28;19922;-90
2024/02/22 18:28:35;;;;;;;;;;;;;;;6.99;100.00;96825.13;5014291;28;19928;-87
2024/02/22 18:31:00;;;;;;;;;;;;;;;7.17;100.00;96835.22;5012084;28;19932;-88
2024/02/22 18:33:26;;;;;;;;;;;;;;;7.11;100.00;96827.78;5015016;28;19917;-89
2024/02/22 18:35:51;;;;;;;;;;;;;;;7.15;100.00;96842.38;5015403;28;19922;-92
2024/02/22 18:38:17;;;;;;;;;;;;;;;7.13;100.00;96815.31;5015302;28;19971;-89
2024/02/22 18:40:42;;;;;;;;;;;;;;;7.25;100.00;96823.13;5028691;28;19921;-90
2024/02/22 18:43:08;;;;;;;;;;;;;;;7.19;100.00;96799.06;5013999;28;19922;-92
2024/02/22 18:45:33;;;;;;;;;;;;;;;7.20;100.00;96806.84;5014323;28;20372;-88
2024/02/22 18:47:58;;;;;;;;;;;;;;;7.23;100.00;96827.69;5011656;28;20060;-89
2024/02/22 18:50:24;;;;;;;;;;;;;;;7.26;100.00;96808.19;5014375;28;19926;-88
2024/02/22 18:52:49;;;;;;;;;;;;;;;7.17;100.00;96822.03;5014619;28;19917;-93
2024/02/22 18:55:14;;;;;;;;;;;;;;;7.19;100.00;96820.13;5015424;28;19921;-91
2024/02/22 18:57:39;;;;;;;;;;;;;;;7.30;100.00;96835.94;5013665;28;19918;-89
2024/02/22 19:00:05;;;;;;;;;;;;;;;7.16;100.00;96836.16;5013716;28;20321;-88
2024/02/22 19:02:33;;;;;;;;;;;;;;;7.03;100.00;96821.28;5013140;28;19922;-90
2024/02/22 19:04:58;;;;;;;;;;;;;;;7.20;100.00;96803.38;5012806;28;19918;-89
2024/02/22 19:07:23;;;;;;;;;;;;;;;7.18;100.00;96792.97;5012103;28;19932;-91
2024/02/22 19:09:49;;;;;;;;;;;;;;;7.04;100.00;96817.69;5012106;28;19917;-86
2024/02/22 19:12:14;;;;;;;;;;;;;;;7.13;100.00;96844.28;5013907;28;19971;-87
2024/02/22 19:14:39;;;;;;;;;;;;;;;7.01;100.00;96849.53;5011461;28;20393;-89
2024/02/22 19:17:07;;;;;;;;;;;;;;;7.06;100.00;96842.09;5013278;28;20315;-89
2024/02/22 19:19:32;;;;;;;;;;;;;;;6.91;100.00;96833.59;5013153;28;19944;-91
2024/02/22 19:21:57;;;;;;;;;;;;;;;6.93;100.00;96872.97;5014231;28;20772;-89
2024/02/22 19:24:27;;;;;;;;;;;;;;;6.97;100.00;96886.72;5013113;28;19925;-84
2024/02/22 19:26:56;;;;;;;;;;;;;;;7.02;100.00;96924.06;5011781;28;20016;-84
2024/02/22 19:29:21;;;;;;;;;;;;;;;6.89;100.00;96924.13;5010826;28;20395;-90
2024/02/22 19:31:48;;;;;;;;;;;;;;;6.82;100.00;96920.28;5011764;28;19925;-89
2024/02/22 19:34:13;;;;;;;;;;;;;;;6.77;100.00;96918.00;5029263;28;20262;-90
2024/02/22 19:36:38;;;;;;;;;;;;;;;6.77;100.00;96939.03;5013657;28;19979;-89
2024/02/22 19:39:03;;;;;;;;;;;;;;;6.71;100.00;96952.63;5011483;28;20012;-87
2024/02/22 19:41:29;;;;;;;;;;;;;;;6.68;100.00;96958.13;5013181;28;19975;-87
2024/02/22 19:43:55;;;;;;;;;;;;;;;6.81;100.00;96958.06;5013297;28;19944;-88
2024/02/22 19:46:22;;;;;;;;;;;;;;;6.79;100.00;96960.81;5011417;28;19983;-89
2024/02/22 19:48:48;;;;;;;;;;;;;;;6.71;100.00;96964.00;5012547;28;19921;-90
2024/02/22 19:51:14;;;;;;;;;;;;;;;6.75;100.00;96972.53;5011447;28;20361;-88
2024/02/22 19:53:39;;;;;;;;;;;;;;;6.67;100.00;96972.22;5013744;28;19921;-88
2024/02/22 19:56:05;;;;;;;;;;;;;;;6.72;100.00;96965.69;5012357;28;19917;-88
2024/02/22 19:58:31;;;;;;;;;;;;;;;6.63;100.00;96981.28;5013411;28;19982;-86
2024/02/22 20:00:57;;;;;;;;;;;;;;;6.65;100.00;96975.00;5011676;28;20012;-88
2024/02/22 20:03:22;;;;;;;;;;;;;;;6.64;100.00;96983.00;5013005;28;19928;-87
2024/02/22 20:05:47;;;;;;;;;;;;;;;6.63;100.00;96991.81;5011627;28;20046;-87
2024/02/22 20:08:13;;;;;;;;;;;;;;;6.58;100.00;97010.56;5011966;28;19922;-89
2024/02/22 20:10:39;;;;;;;;;;;;;;;6.66;100.00;97031.91;5011823;28;19926;-87
2024/02/22 20:13:08;;;;;;;;;;;;;;;6.75;100.00;97055.88;5012120;28;19952;-92
2024/02/22 20:15:33;;;;;;;;;;;;;;;6.69;100.00;97047.47;5012207;28;19989;-84
2024/02/22 20:17:59;;;;;;;;;;;;;;;6.67;100.00;97073.06;5044960;28;19979;-89
2024/02/22 20:20:25;;;;;;;;;;;;;;;6.67;100.00;97070.44;5012950;28;19925;-89
2024/02/22 20:22:51;;;;;;;;;;;;;;;6.72;100.00;97081.47;5027940;28;19933;-89
2024/02/22 20:25:26;;;;;;;;;;;;;;;6.69;100.00;97092.22;5013022;28;20360;-90
2024/02/22 20:27:53;;;;;;;;;;;;;;;6.73;100.00;97108.63;5012549;28;20395;-88
2024/02/22 20:30:19;;;;;;;;;;;;;;;6.71;100.00;97103.47;5011836;28;19922;-91
2024/02/22 20:32:47;;;;;;;;;;;;;;;6.68;100.00;97105.47;5011323;28;20020;-91
2024/02/22 20:35:12;;;;;;;;;;;;;;;6.56;100.00;97122.97;5013026;28;19960;-86
2024/02/22 20:37:38;;;;;;;;;;;;;;;6.60;100.00;97148.09;5013072;28;19949;-87
2024/02/22 20:40:04;;;;;;;;;;;;;;;6.68;100.00;97169.47;5011551;28;20272;-88
2024/02/22 20:42:29;;;;;;;;;;;;;;;6.73;100.00;97177.91;5012866;28;19921;-88
2024/02/22 20:44:56;;;;;;;;;;;;;;;6.65;100.00;97185.50;5026706;28;19971;-88
2024/02/22 20:47:21;;;;;;;;;;;;;;;6.66;100.00;97170.53;5011046;28;19925;-88
2024/02/22 20:49:47;;;;;;;;;;;;;;;6.65;100.00;97182.00;5011852;28;19936;-87
2024/02/22 20:52:12;;;;;;;;;;;;;;;6.62;100.00;97180.44;5012062;28;19971;-88
2024/02/22 20:54:37;;;;;;;;;;;;;;;6.55;100.00;97180.00;5012400;28;19922;-87
2024/02/22 20:57:03;;;;;;;;;;;;;;;6.58;100.00;97178.94;5027443;28;20315;-89
2024/02/22 20:59:29;;;;;;;;;;;;;;;6.64;100.00;97186.44;5010997;28;19976;-87
2024/02/22 21:01:55;;;;;;;;;;;;;;;6.62;100.00;97196.22;5010998;28;20032;-85
2024/02/22 21:04:33;;;;;;;;;;;;;;;6.58;100.00;97202.63;5013004;28;20012;-93
2024/02/22 21:06:59;;;;;;;;;;;;;;;6.62;100.00;97213.78;5012725;28;19917;-89
2024/02/22 21:09:24;;;;;;;;;;;;;;;6.55;100.00;97218.63;5011300;28;20324;-89
2024/02/22 21:11:52;;;;;;;;;;;;;;;6.52;100.00;97230.19;5012229;28;20393;-88
2024/02/22 21:14:17;;;;;;;;;;;;;;;6.57;100.00;97250.09;5009937;28;19917;-88
2024/02/22 21:16:45;;;;;;;;;;;;;;;6.65;100.00;97256.53;5012398;28;19921;-89
2024/02/22 21:19:21;;;;;;;;;;;;;;;6.50;100.00;97260.19;5010978;28;19925;-92
2024/02/22 21:21:46;;;;;;;;;;;;;;;6.58;100.00;97257.88;5027243;28;19953;-89